sensor_id;sensor_type;location;lat;lon;timestamp;pressure;altitude;pressure_sealevel;temperature;humidity
21545;BME280;10933;50.754;11.508;2024-03-22T00:01:49;100210.03;;;3.97;100.00
21545;BME280;10933;50.754;11.508;2024-03-22T00:04:18;100201.25;;;4.03;100.00
21545;BME280;10933;50.754;11.508;2024-03-22T00:06:47;100199.97;;;3.99;100.00
21545;BME280;10933;50.754;11.508;2024-03-22T00:09:13;100204.06;;;3.95;100.00
21545;BME280;10933;50.754;11.508;2024-03-22T00:11:40;100201.63;;;4.00;100.00
21545;BME280;10933;50.754;11.508;2024-03-22T00:14:07;100207.38;;;3.97;100.00
21545;BME280;10933;50.754;11.508;2024-03-22T00:16:34;100198.56;;;4.03;100.00
21545;BME280;10933;50.754;11.508;2024-03-22T00:19:00;100201.91;;;3.84;100.00
21545;BME280;10933;50.754;11.508;2024-03-22T00:21:27;100204.19;;;3.87;100.00
21545;BME280;10933;50.754;11.508;2024-03-22T00:23:54;100198.34;;;3.77;100.00
21545;BME280;10933;50.754;11.508;2024-03-22T00:26:20;100196.06;;;3.74;100.00
21545;BME280;10933;50.754;11.508;2024-03-22T00:28:46;100201.16;;;3.69;100.00
21545;BME280;10933;50.754;11.508;2024-03-22T00:31:12;100205.81;;;3.67;100.00
21545;BME280;10933;50.754;11.508;2024-03-22T00:33:38;100195.16;;;3.67;100.00
21545;BME280;10933;50.754;11.508;2024-03-22T00:36:04;100199.13;;;3.71;100.00
21545;BME280;10933;50.754;11.508;2024-03-22T00:38:30;100196.44;;;3.71;100.00
21545;BME280;10933;50.754;11.508;2024-03-22T00:40:57;100197.47;;;3.70;100.00
21545;BME280;10933;50.754;11.508;2024-03-22T00:43:23;100202.53;;;3.65;100.00
21545;BME280;10933;50.754;11.508;2024-03-22T00:45:49;100197.31;;;3.78;100.00
21545;BME280;10933;50.754;11.508;2024-03-22T00:48:15;100197.78;;;3.81;100.00
21545;BME280;10933;50.754;11.508;2024-03-22T00:50:41;100187.94;;;3.82;100.00
21545;BME280;10933;50.754;11.508;2024-03-22T00:53:08;100179.66;;;3.77;100.00
21545;BME280;10933;50.754;11.508;2024-03-22T00:55:35;100172.75;;;3.82;100.00
21545;BME280;10933;50.754;11.508;2024-03-22T00:58:02;100166.59;;;3.82;100.00
21545;BME280;10933;50.754;11.508;2024-03-22T01:00:28;100175.22;;;3.84;100.00
21545;BME280;10933;50.754;11.508;2024-03-22T01:02:54;100167.44;;;3.89;100.00
21545;BME280;10933;50.754;11.508;2024-03-22T01:05:20;100170.75;;;3.91;100.00
21545;BME280;10933;50.754;11.508;2024-03-22T01:07:46;100157.22;;;3.93;100.00
21545;BME280;10933;50.754;11.508;2024-03-22T01:10:12;100153.72;;;3.92;100.00
21545;BME280;10933;50.754;11.508;2024-03-22T01:12:39;100153.19;;;4.03;100.00
21545;BME280;10933;50.754;11.508;2024-03-22T01:15:08;100139.03;;;4.03;100.00
21545;BME280;10933;50.754;11.508;2024-03-22T01:17:35;100131.34;;;3.93;100.00
21545;BME280;10933;50.754;11.508;2024-03-22T01:20:01;100134.66;;;3.95;100.00
21545;BME280;10933;50.754;11.508;2024-03-22T01:22:27;100133.38;;;3.91;100.00
21545;BME280;10933;50.754;11.508;2024-03-22T01:24:53;100128.66;;;3.93;100.00
21545;BME280;10933;50.754;11.508;2024-03-22T01:27:20;100116.00;;;3.74;100.00
21545;BME280;10933;50.754;11.508;2024-03-22T01:29:47;100111.53;;;3.81;100.00
21545;BME280;10933;50.754;11.508;2024-03-22T01:32:13;100106.59;;;3.78;100.00
21545;BME280;10933;50.754;11.508;2024-03-22T01:34:39;100109.03;;;3.73;100.00
21545;BME280;10933;50.754;11.508;2024-03-22T01:37:06;100104.91;;;3.70;100.00
21545;BME280;10933;50.754;11.508;2024-03-22T01:39:32;100096.06;;;3.70;100.00
21545;BME280;10933;50.754;11.508;2024-03-22T01:41:58;100094.16;;;3.64;100.00
21545;BME280;10933;50.754;11.508;2024-03-22T01:44:28;100096.59;;;3.59;100.00
21545;BME280;10933;50.754;11.508;2024-03-22T01:46:55;100088.44;;;3.67;100.00
21545;BME280;10933;50.754;11.508;2024-03-22T01:49:22;100081.44;;;3.66;100.00
21545;BME280;10933;50.754;11.508;2024-03-22T01:51:49;100085.13;;;3.65;100.00
21545;BME280;10933;50.754;11.508;2024-03-22T01:54:17;100079.38;;;3.61;100.00
21545;BME280;10933;50.754;11.508;2024-03-22T01:56:43;100089.09;;;3.69;100.00
21545;BME280;10933;50.754;11.508;2024-03-22T01:59:09;100089.19;;;3.82;100.00
21545;BME280;10933;50.754;11.508;2024-03-22T02:01:36;100084.84;;;3.81;100.00
21545;BME280;10933;50.754;11.508;2024-03-22T02:04:02;100078.75;;;3.87;100.00
21545;BME280;10933;50.754;11.508;2024-03-22T02:06:29;100080.88;;;3.98;100.00
21545;BME280;10933;50.754;11.508;2024-03-22T02:08:55;100077.19;;;3.99;100.00
21545;BME280;10933;50.754;11.508;2024-03-22T02:11:22;100073.94;;;4.04;100.00
21545;BME280;10933;50.754;11.508;2024-03-22T02:13:48;100065.63;;;3.92;100.00
21545;BME280;10933;50.754;11.508;2024-03-22T02:16:14;100061.84;;;3.80;100.00
21545;BME280;10933;50.754;11.508;2024-03-22T02:18:40;100059.34;;;3.72;100.00
21545;BME280;10933;50.754;11.508;2024-03-22T02:21:06;100048.69;;;3.72;100.00
21545;BME280;10933;50.754;11.508;2024-03-22T02:23:37;100043.59;;;3.55;100.00
21545;BME280;10933;50.754;11.508;2024-03-22T02:26:04;100036.69;;;3.61;100.00
21545;BME280;10933;50.754;11.508;2024-03-22T02:28:31;100031.78;;;3.65;100.00
21545;BME280;10933;50.754;11.508;2024-03-22T02:30:59;100029.38;;;3.70;100.00
21545;BME280;10933;50.754;11.508;2024-03-22T02:33:25;100036.09;;;3.66;100.00
21545;BME280;10933;50.754;11.508;2024-03-22T02:35:51;100033.56;;;3.86;100.00
21545;BME280;10933;50.754;11.508;2024-03-22T02:38:18;100038.28;;;3.83;100.00
21545;BME280;10933;50.754;11.508;2024-03-22T02:40:45;100033.56;;;3.86;100.00
21545;BME280;10933;50.754;11.508;2024-03-22T02:43:12;100028.19;;;3.79;100.00
21545;BME280;10933;50.754;11.508;2024-03-22T02:45:39;100025.69;;;3.71;100.00
21545;BME280;10933;50.754;11.508;2024-03-22T02:48:05;100034.25;;;3.66;100.00
21545;BME280;10933;50.754;11.508;2024-03-22T02:50:36;100031.78;;;3.65;100.00
21545;BME280;10933;50.754;11.508;2024-03-22T02:53:03;100037.94;;;3.65;100.00
21545;BME280;10933;50.754;11.508;2024-03-22T02:55:29;100051.88;;;3.61;100.00
21545;BME280;10933;50.754;11.508;2024-03-22T02:57:57;100039.06;;;3.49;100.00
21545;BME280;10933;50.754;11.508;2024-03-22T03:00:23;100037.53;;;3.40;100.00
21545;BME280;10933;50.754;11.508;2024-03-22T03:02:50;100035.66;;;3.34;100.00
21545;BME280;10933;50.754;11.508;2024-03-22T03:05:16;100038.50;;;3.33;100.00
21545;BME280;10933;50.754;11.508;2024-03-22T03:07:42;100043.03;;;3.32;100.00
21545;BME280;10933;50.754;11.508;2024-03-22T03:10:08;100042.13;;;3.25;100.00
21545;BME280;10933;50.754;11.508;2024-03-22T03:12:34;100045.41;;;3.27;100.00
21545;BME280;10933;50.754;11.508;2024-03-22T03:15:00;100040.88;;;3.21;100.00
21545;BME280;10933;50.754;11.508;2024-03-22T03:17:26;100066.50;;;3.22;100.00
21545;BME280;10933;50.754;11.508;2024-03-22T03:19:52;100056.88;;;3.21;100.00
21545;BME280;10933;50.754;11.508;2024-03-22T03:22:18;100059.47;;;3.14;100.00
21545;BME280;10933;50.754;11.508;2024-03-22T03:24:45;100066.25;;;3.17;100.00
21545;BME280;10933;50.754;11.508;2024-03-22T03:27:11;100069.28;;;3.14;100.00
21545;BME280;10933;50.754;11.508;2024-03-22T03:29:37;100062.69;;;3.10;100.00
21545;BME280;10933;50.754;11.508;2024-03-22T03:32:03;100060.78;;;3.04;100.00
21545;BME280;10933;50.754;11.508;2024-03-22T03:34:29;100060.78;;;3.04;100.00
21545;BME280;10933;50.754;11.508;2024-03-22T03:36:55;100060.78;;;3.04;100.00
21545;BME280;10933;50.754;11.508;2024-03-22T03:39:21;100062.19;;;3.00;100.00
21545;BME280;10933;50.754;11.508;2024-03-22T03:41:47;100055.78;;;2.94;100.00
21545;BME280;10933;50.754;11.508;2024-03-22T03:44:14;100053.94;;;2.94;100.00
21545;BME280;10933;50.754;11.508;2024-03-22T03:46:40;100052.34;;;3.00;100.00
21545;BME280;10933;50.754;11.508;2024-03-22T03:49:06;100043.00;;;2.89;100.00
21545;BME280;10933;50.754;11.508;2024-03-22T03:51:32;100042.06;;;2.97;100.00
21545;BME280;10933;50.754;11.508;2024-03-22T03:53:58;100037.94;;;2.94;100.00
21545;BME280;10933;50.754;11.508;2024-03-22T03:56:24;100030.84;;;3.02;100.00
21545;BME280;10933;50.754;11.508;2024-03-22T03:58:50;100026.72;;;2.99;100.00
21545;BME280;10933;50.754;11.508;2024-03-22T04:01:16;100026.59;;;3.07;100.00
21545;BME280;10933;50.754;11.508;2024-03-22T04:03:44;100023.47;;;3.04;100.00
21545;BME280;10933;50.754;11.508;2024-03-22T04:06:10;100013.97;;;2.94;100.00
21545;BME280;10933;50.754;11.508;2024-03-22T04:08:36;100018.97;;;3.04;100.00
21545;BME280;10933;50.754;11.508;2024-03-22T04:11:02;100019.53;;;3.00;100.00
21545;BME280;10933;50.754;11.508;2024-03-22T04:13:29;100013.81;;;3.03;100.00
21545;BME280;10933;50.754;11.508;2024-03-22T04:15:58;100022.28;;;3.06;100.00
21545;BME280;10933;50.754;11.508;2024-03-22T04:18:24;100016.56;;;3.09;100.00
21545;BME280;10933;50.754;11.508;2024-03-22T04:20:57;100009.28;;;3.18;100.00
21545;BME280;10933;50.754;11.508;2024-03-22T04:23:25;100009.63;;;3.15;100.00
21545;BME280;10933;50.754;11.508;2024-03-22T04:25:54;100004.75;;;3.18;100.00
21545;BME280;10933;50.754;11.508;2024-03-22T04:28:21;100009.69;;;3.21;100.00
21545;BME280;10933;50.754;11.508;2024-03-22T04:30:59;99997.75;;;3.17;100.00
21545;BME280;10933;50.754;11.508;2024-03-22T04:33:28;99997.50;;;3.12;100.00
21545;BME280;10933;50.754;11.508;2024-03-22T04:35:55;99998.53;;;3.11;100.00
21545;BME280;10933;50.754;11.508;2024-03-22T04:38:22;99995.63;;;3.06;100.00
21545;BME280;10933;50.754;11.508;2024-03-22T04:40:49;100001.78;;;3.07;100.00
21545;BME280;10933;50.754;11.508;2024-03-22T04:43:15;100003.66;;;3.13;100.00
21545;BME280;10933;50.754;11.508;2024-03-22T04:45:45;100001.78;;;3.07;100.00
21545;BME280;10933;50.754;11.508;2024-03-22T04:48:21;100001.78;;;3.07;100.00
21545;BME280;10933;50.754;11.508;2024-03-22T04:50:51;99997.47;;;3.06;100.00
21545;BME280;10933;50.754;11.508;2024-03-22T04:53:19;100003.63;;;3.06;100.00
21545;BME280;10933;50.754;11.508;2024-03-22T04:55:46;100011.22;;;3.09;100.00
21545;BME280;10933;50.754;11.508;2024-03-22T04:58:14;100009.81;;;3.13;100.00
21545;BME280;10933;50.754;11.508;2024-03-22T05:00:41;99999.34;;;3.12;100.00
21545;BME280;10933;50.754;11.508;2024-03-22T05:03:07;99995.03;;;3.11;100.00
21545;BME280;10933;50.754;11.508;2024-03-22T05:05:34;99996.88;;;3.10;100.00
21545;BME280;10933;50.754;11.508;2024-03-22T05:08:01;99985.00;;;3.13;100.00
21545;BME280;10933;50.754;11.508;2024-03-22T05:10:28;99979.44;;;3.08;100.00
21545;BME280;10933;50.754;11.508;2024-03-22T05:12:57;99982.97;;;3.15;100.00
21545;BME280;10933;50.754;11.508;2024-03-22T05:15:24;99973.34;;;3.14;100.00
21545;BME280;10933;50.754;11.508;2024-03-22T05:17:51;99965.97;;;3.16;100.00
21545;BME280;10933;50.754;11.508;2024-03-22T05:20:17;99960.81;;;3.14;100.00
21545;BME280;10933;50.754;11.508;2024-03-22T05:22:44;99957.22;;;3.22;100.00
21545;BME280;10933;50.754;11.508;2024-03-22T05:25:10;99957.22;;;3.22;100.00
21545;BME280;10933;50.754;11.508;2024-03-22T05:27:36;99959.53;;;3.32;100.00
21545;BME280;10933;50.754;11.508;2024-03-22T05:30:03;99943.88;;;3.22;100.00
21545;BME280;10933;50.754;11.508;2024-03-22T05:32:31;99943.25;;;3.20;100.00
21545;BME280;10933;50.754;11.508;2024-03-22T05:34:58;99942.72;;;3.31;100.00
21545;BME280;10933;50.754;11.508;2024-03-22T05:37:24;99939.25;;;3.37;100.00
21545;BME280;10933;50.754;11.508;2024-03-22T05:39:50;99931.88;;;3.39;100.00
21545;BME280;10933;50.754;11.508;2024-03-22T05:42:16;99926.22;;;3.49;100.00
21545;BME280;10933;50.754;11.508;2024-03-22T05:44:42;99924.31;;;3.71;100.00
21545;BME280;10933;50.754;11.508;2024-03-22T05:47:08;99919.72;;;3.65;100.00
21545;BME280;10933;50.754;11.508;2024-03-22T05:49:34;99896.53;;;3.65;100.00
21545;BME280;10933;50.754;11.508;2024-03-22T05:52:01;99899.47;;;3.77;100.00
21545;BME280;10933;50.754;11.508;2024-03-22T05:54:27;99893.56;;;3.88;100.00
21545;BME280;10933;50.754;11.508;2024-03-22T05:56:53;99886.66;;;4.00;100.00
21545;BME280;10933;50.754;11.508;2024-03-22T05:59:19;99876.78;;;4.01;100.00
21545;BME280;10933;50.754;11.508;2024-03-22T06:01:45;99867.34;;;3.98;100.00
21545;BME280;10933;50.754;11.508;2024-03-22T06:04:11;99867.41;;;4.25;100.00
21545;BME280;10933;50.754;11.508;2024-03-22T06:06:37;99868.78;;;4.01;100.00
21545;BME280;10933;50.754;11.508;2024-03-22T06:09:04;99862.28;;;4.23;100.00
21545;BME280;10933;50.754;11.508;2024-03-22T06:11:34;99856.78;;;4.51;100.00
21545;BME280;10933;50.754;11.508;2024-03-22T06:14:00;99848.56;;;4.59;100.00
21545;BME280;10933;50.754;11.508;2024-03-22T06:16:26;99845.91;;;4.72;100.00
21545;BME280;10933;50.754;11.508;2024-03-22T06:18:52;99835.41;;;4.91;100.00
21545;BME280;10933;50.754;11.508;2024-03-22T06:21:19;99826.75;;;4.95;100.00
21545;BME280;10933;50.754;11.508;2024-03-22T06:23:50;99806.38;;;4.94;100.00
21545;BME280;10933;50.754;11.508;2024-03-22T06:26:17;99814.22;;;4.83;100.00
21545;BME280;10933;50.754;11.508;2024-03-22T06:28:44;99816.91;;;4.96;100.00
21545;BME280;10933;50.754;11.508;2024-03-22T06:31:10;99820.78;;;5.13;100.00
21545;BME280;10933;50.754;11.508;2024-03-22T06:33:36;99820.56;;;5.21;100.00
21545;BME280;10933;50.754;11.508;2024-03-22T06:36:02;99823.38;;;5.46;100.00
21545;BME280;10933;50.754;11.508;2024-03-22T06:38:31;99795.75;;;5.46;100.00
21545;BME280;10933;50.754;11.508;2024-03-22T06:40:57;99808.03;;;5.73;100.00
21545;BME280;10933;50.754;11.508;2024-03-22T06:43:25;99788.38;;;5.93;100.00
21545;BME280;10933;50.754;11.508;2024-03-22T06:45:51;99788.38;;;5.93;100.00
21545;BME280;10933;50.754;11.508;2024-03-22T06:48:17;99794.31;;;6.01;100.00
21545;BME280;10933;50.754;11.508;2024-03-22T06:50:43;99786.78;;;6.16;100.00
21545;BME280;10933;50.754;11.508;2024-03-22T06:53:10;99788.50;;;6.04;100.00
21545;BME280;10933;50.754;11.508;2024-03-22T06:55:36;99787.03;;;6.40;100.00
21545;BME280;10933;50.754;11.508;2024-03-22T06:58:02;99785.03;;;6.35;100.00
21545;BME280;10933;50.754;11.508;2024-03-22T07:00:29;99782.84;;;6.19;100.00
21545;BME280;10933;50.754;11.508;2024-03-22T07:02:55;99784.63;;;6.00;100.00
21545;BME280;10933;50.754;11.508;2024-03-22T07:05:22;99789.38;;;6.55;100.00
21545;BME280;10933;50.754;11.508;2024-03-22T07:07:49;99785.34;;;6.45;100.00
21545;BME280;10933;50.754;11.508;2024-03-22T07:10:21;99786.13;;;6.53;100.00
21545;BME280;10933;50.754;11.508;2024-03-22T07:12:49;99778.09;;;6.71;100.00
21545;BME280;10933;50.754;11.508;2024-03-22T07:15:15;99792.22;;;6.60;100.00
21545;BME280;10933;50.754;11.508;2024-03-22T07:17:41;99787.63;;;6.67;100.00
21545;BME280;10933;50.754;11.508;2024-03-22T07:20:07;99800.88;;;6.37;100.00
21545;BME280;10933;50.754;11.508;2024-03-22T07:22:33;99805.22;;;6.31;100.00
21545;BME280;10933;50.754;11.508;2024-03-22T07:24:59;99802.91;;;6.10;100.00
21545;BME280;10933;50.754;11.508;2024-03-22T07:27:26;99804.13;;;6.14;100.00
21545;BME280;10933;50.754;11.508;2024-03-22T07:29:55;99806.31;;;5.92;100.00
21545;BME280;10933;50.754;11.508;2024-03-22T07:32:21;99804.16;;;6.07;100.00
21545;BME280;10933;50.754;11.508;2024-03-22T07:34:48;99799.50;;;6.28;100.00
21545;BME280;10933;50.754;11.508;2024-03-22T07:37:14;99800.19;;;6.16;100.00
21545;BME280;10933;50.754;11.508;2024-03-22T07:39:40;99793.75;;;6.24;100.00
21545;BME280;10933;50.754;11.508;2024-03-22T07:42:06;99789.16;;;6.31;100.00
21545;BME280;10933;50.754;11.508;2024-03-22T07:44:32;99789.84;;;6.52;100.00
21545;BME280;10933;50.754;11.508;2024-03-22T07:46:59;99786.84;;;6.35;100.00
21545;BME280;10933;50.754;11.508;2024-03-22T07:49:25;99795.06;;;6.40;100.00
21545;BME280;10933;50.754;11.508;2024-03-22T07:51:51;99790.75;;;6.39;100.00
21545;BME280;10933;50.754;11.508;2024-03-22T07:54:19;99792.78;;;6.43;100.00
21545;BME280;10933;50.754;11.508;2024-03-22T07:56:46;99795.53;;;6.62;100.00
21545;BME280;10933;50.754;11.508;2024-03-22T07:59:13;99791.38;;;6.66;100.00
21545;BME280;10933;50.754;11.508;2024-03-22T08:01:39;99789.44;;;6.73;100.00
21545;BME280;10933;50.754;11.508;2024-03-22T08:04:05;99788.66;;;6.91;100.00
21545;BME280;10933;50.754;11.508;2024-03-22T08:06:32;99781.53;;;7.21;100.00
21545;BME280;10933;50.754;11.508;2024-03-22T08:08:58;99779.22;;;7.43;100.00
21545;BME280;10933;50.754;11.508;2024-03-22T08:11:24;99774.31;;;7.88;100.00
21545;BME280;10933;50.754;11.508;2024-03-22T08:13:50;99782.84;;;8.27;100.00
21545;BME280;10933;50.754;11.508;2024-03-22T08:16:16;99779.78;;;8.65;100.00
21545;BME280;10933;50.754;11.508;2024-03-22T08:18:42;99787.72;;;8.60;100.00
21545;BME280;10933;50.754;11.508;2024-03-22T08:21:08;99785.25;;;8.17;100.00
21545;BME280;10933;50.754;11.508;2024-03-22T08:23:34;99787.22;;;7.80;100.00
21545;BME280;10933;50.754;11.508;2024-03-22T08:26:00;99794.00;;;8.12;100.00
21545;BME280;10933;50.754;11.508;2024-03-22T08:28:26;99800.31;;;8.48;100.00
21545;BME280;10933;50.754;11.508;2024-03-22T08:30:52;99811.31;;;8.58;100.00
21545;BME280;10933;50.754;11.508;2024-03-22T08:33:18;99806.47;;;8.37;100.00
21545;BME280;10933;50.754;11.508;2024-03-22T08:35:45;99814.84;;;8.70;100.00
21545;BME280;10933;50.754;11.508;2024-03-22T08:38:11;99812.91;;;8.36;100.00
21545;BME280;10933;50.754;11.508;2024-03-22T08:40:40;99810.16;;;8.54;100.00
21545;BME280;10933;50.754;11.508;2024-03-22T08:43:07;99806.25;;;8.08;100.00
21545;BME280;10933;50.754;11.508;2024-03-22T08:45:33;99803.53;;;8.26;100.00
21545;BME280;10933;50.754;11.508;2024-03-22T08:47:59;99801.41;;;8.29;100.00
21545;BME280;10933;50.754;11.508;2024-03-22T08:50:26;99808.09;;;8.26;100.00
21545;BME280;10933;50.754;11.508;2024-03-22T08:52:52;99806.53;;;8.18;100.00
21545;BME280;10933;50.754;11.508;2024-03-22T08:55:18;99809.53;;;8.40;100.00
21545;BME280;10933;50.754;11.508;2024-03-22T08:57:45;99803.63;;;8.97;100.00
21545;BME280;10933;50.754;11.508;2024-03-22T09:00:11;99798.69;;;9.40;100.00
21545;BME280;10933;50.754;11.508;2024-03-22T09:02:37;99797.78;;;9.63;100.00
21545;BME280;10933;50.754;11.508;2024-03-22T09:05:05;99801.16;;;9.82;100.00
21545;BME280;10933;50.754;11.508;2024-03-22T09:07:31;99798.31;;;9.89;100.00
21545;BME280;10933;50.754;11.508;2024-03-22T09:09:57;99794.84;;;10.34;100.00
21545;BME280;10933;50.754;11.508;2024-03-22T09:12:23;99796.25;;;10.36;100.00
21545;BME280;10933;50.754;11.508;2024-03-22T09:14:49;99793.72;;;10.80;100.00
21545;BME280;10933;50.754;11.508;2024-03-22T09:17:15;99800.66;;;11.09;100.00
21545;BME280;10933;50.754;11.508;2024-03-22T09:19:42;99805.47;;;11.07;100.00
21545;BME280;10933;50.754;11.508;2024-03-22T09:22:08;99799.63;;;11.15;100.00
21545;BME280;10933;50.754;11.508;2024-03-22T09:24:34;99792.75;;;11.25;100.00
21545;BME280;10933;50.754;11.508;2024-03-22T09:27:00;99785.84;;;10.78;100.00
21545;BME280;10933;50.754;11.508;2024-03-22T09:29:26;99796.38;;;11.13;100.00
21545;BME280;10933;50.754;11.508;2024-03-22T09:31:52;99795.34;;;11.36;100.00
21545;BME280;10933;50.754;11.508;2024-03-22T09:34:18;99795.75;;;11.06;100.00
21545;BME280;10933;50.754;11.508;2024-03-22T09:36:45;99794.66;;;11.68;100.00
21545;BME280;10933;50.754;11.508;2024-03-22T09:39:11;99788.91;;;11.42;100.00
21545;BME280;10933;50.754;11.508;2024-03-22T09:41:44;99801.19;;;11.94;100.00
21545;BME280;10933;50.754;11.508;2024-03-22T09:44:14;99808.75;;;11.92;100.00
21545;BME280;10933;50.754;11.508;2024-03-22T09:46:44;99803.56;;;12.12;100.00
21545;BME280;10933;50.754;11.508;2024-03-22T09:49:11;99797.22;;;12.01;100.00
21545;BME280;10933;50.754;11.508;2024-03-22T09:51:39;99800.06;;;11.90;100.00
21545;BME280;10933;50.754;11.508;2024-03-22T09:54:05;99795.56;;;11.95;100.00
21545;BME280;10933;50.754;11.508;2024-03-22T09:56:32;99791.56;;;12.03;100.00
21545;BME280;10933;50.754;11.508;2024-03-22T09:58:58;99780.50;;;12.04;100.00
21545;BME280;10933;50.754;11.508;2024-03-22T10:01:25;99776.22;;;12.08;100.00
21545;BME280;10933;50.754;11.508;2024-03-22T10:03:54;99783.31;;;12.15;100.00
21545;BME280;10933;50.754;11.508;2024-03-22T10:06:21;99777.13;;;12.19;100.00
21545;BME280;10933;50.754;11.508;2024-03-22T10:08:47;99782.06;;;12.00;100.00
21545;BME280;10933;50.754;11.508;2024-03-22T10:11:13;99772.84;;;12.23;100.00
21545;BME280;10933;50.754;11.508;2024-03-22T10:13:39;99784.00;;;12.59;100.00
21545;BME280;10933;50.754;11.508;2024-03-22T10:16:06;99765.78;;;12.49;100.00
21545;BME280;10933;50.754;11.508;2024-03-22T10:18:33;99770.94;;;12.88;100.00
21545;BME280;10933;50.754;11.508;2024-03-22T10:21:03;99780.63;;;13.21;100.00
21545;BME280;10933;50.754;11.508;2024-03-22T10:23:30;99779.59;;;13.32;100.00
21545;BME280;10933;50.754;11.508;2024-03-22T10:26:00;99778.56;;;13.38;100.00
21545;BME280;10933;50.754;11.508;2024-03-22T10:28:27;99780.13;;;13.87;100.00
21545;BME280;10933;50.754;11.508;2024-03-22T10:30:53;99783.72;;;14.28;100.00
21545;BME280;10933;50.754;11.508;2024-03-22T10:33:21;99796.28;;;14.64;100.00
21545;BME280;10933;50.754;11.508;2024-03-22T10:35:53;99792.72;;;14.89;100.00
21545;BME280;10933;50.754;11.508;2024-03-22T10:38:20;99806.56;;;14.72;100.00
21545;BME280;10933;50.754;11.508;2024-03-22T10:40:47;99797.06;;;14.95;100.00
21545;BME280;10933;50.754;11.508;2024-03-22T10:43:14;99801.38;;;15.12;100.00
21545;BME280;10933;50.754;11.508;2024-03-22T10:45:41;99788.66;;;14.66;100.00
21545;BME280;10933;50.754;11.508;2024-03-22T10:48:11;99802.72;;;15.19;100.00
21545;BME280;10933;50.754;11.508;2024-03-22T10:50:41;99798.34;;;15.39;100.00
21545;BME280;10933;50.754;11.508;2024-03-22T10:53:18;99808.91;;;15.50;100.00
21545;BME280;10933;50.754;11.508;2024-03-22T10:55:47;99805.91;;;15.47;100.00
21545;BME280;10933;50.754;11.508;2024-03-22T10:58:16;99811.81;;;15.79;100.00
21545;BME280;10933;50.754;11.508;2024-03-22T11:00:43;99803.31;;;15.91;100.00
21545;BME280;10933;50.754;11.508;2024-03-22T11:03:09;99793.81;;;15.83;100.00
21545;BME280;10933;50.754;11.508;2024-03-22T11:05:45;99796.91;;;15.62;100.00
21545;BME280;10933;50.754;11.508;2024-03-22T11:08:12;99788.28;;;15.39;100.00
21545;BME280;10933;50.754;11.508;2024-03-22T11:10:39;99781.91;;;15.74;100.00
21545;BME280;10933;50.754;11.508;2024-03-22T11:13:06;99790.63;;;16.21;100.00
21545;BME280;10933;50.754;11.508;2024-03-22T11:15:33;99788.09;;;16.34;100.00
21545;BME280;10933;50.754;11.508;2024-03-22T11:18:00;99781.13;;;16.18;100.00
21545;BME280;10933;50.754;11.508;2024-03-22T11:20:27;99781.81;;;16.34;100.00
21545;BME280;10933;50.754;11.508;2024-03-22T11:22:53;99771.41;;;16.07;100.00
21545;BME280;10933;50.754;11.508;2024-03-22T11:25:19;99770.00;;;16.14;100.00
21545;BME280;10933;50.754;11.508;2024-03-22T11:27:46;99775.91;;;16.61;100.00
21545;BME280;10933;50.754;11.508;2024-03-22T11:30:12;99780.75;;;16.64;100.00
21545;BME280;10933;50.754;11.508;2024-03-22T11:32:39;99766.63;;;16.28;100.00
21545;BME280;10933;50.754;11.508;2024-03-22T11:35:13;99763.28;;;16.02;100.00
21545;BME280;10933;50.754;11.508;2024-03-22T11:37:40;99776.47;;;16.58;100.00
21545;BME280;10933;50.754;11.508;2024-03-22T11:40:09;99766.66;;;16.23;100.00
21545;BME280;10933;50.754;11.508;2024-03-22T11:42:37;99743.78;;;16.24;100.00
21545;BME280;10933;50.754;11.508;2024-03-22T11:45:04;99761.34;;;16.81;100.00
21545;BME280;10933;50.754;11.508;2024-03-22T11:47:33;99749.75;;;16.60;100.00
21545;BME280;10933;50.754;11.508;2024-03-22T11:49:59;99750.19;;;16.43;100.00
21545;BME280;10933;50.754;11.508;2024-03-22T11:52:29;99742.94;;;16.28;100.00
21545;BME280;10933;50.754;11.508;2024-03-22T11:54:55;99738.19;;;16.44;100.00
21545;BME280;10933;50.754;11.508;2024-03-22T11:57:22;99735.69;;;16.53;100.00
21545;BME280;10933;50.754;11.508;2024-03-22T11:59:50;99729.78;;;16.74;100.00
21545;BME280;10933;50.754;11.508;2024-03-22T12:02:16;99729.34;;;16.91;100.00
21545;BME280;10933;50.754;11.508;2024-03-22T12:04:47;99718.31;;;16.43;100.00
21545;BME280;10933;50.754;11.508;2024-03-22T12:07:17;99724.38;;;16.69;100.00
21545;BME280;10933;50.754;11.508;2024-03-22T12:09:46;99713.09;;;16.18;100.00
21545;BME280;10933;50.754;11.508;2024-03-22T12:12:13;99701.22;;;15.99;100.00
21545;BME280;10933;50.754;11.508;2024-03-22T12:14:40;99690.00;;;16.10;100.00
21545;BME280;10933;50.754;11.508;2024-03-22T12:17:07;99686.88;;;15.93;100.00
21545;BME280;10933;50.754;11.508;2024-03-22T12:19:34;99671.75;;;15.77;100.00
21545;BME280;10933;50.754;11.508;2024-03-22T12:22:00;99672.81;;;15.81;100.00
21545;BME280;10933;50.754;11.508;2024-03-22T12:24:27;99666.78;;;15.84;100.00
21545;BME280;10933;50.754;11.508;2024-03-22T12:26:53;99668.75;;;15.78;100.00
21545;BME280;10933;50.754;11.508;2024-03-22T12:29:20;99657.06;;;16.12;100.00
21545;BME280;10933;50.754;11.508;2024-03-22T12:31:46;99656.59;;;16.05;100.00
21545;BME280;10933;50.754;11.508;2024-03-22T12:34:13;99654.34;;;15.78;100.00
21545;BME280;10933;50.754;11.508;2024-03-22T12:36:39;99649.06;;;15.92;100.00
21545;BME280;10933;50.754;11.508;2024-03-22T12:39:05;99650.19;;;15.85;100.00
21545;BME280;10933;50.754;11.508;2024-03-22T12:41:32;99645.59;;;15.81;100.00